Portada
METAR-TAF:

METAR-TAF

Aeropuertos :

Aeropuerto de Catania-Fontanarossa

Catania, Italia

latitud: 37-28N, longitud: 015-03E, altitud: 11 m

Observación

El informe se hizo hace 30 minutos, a las 00:50 UTC
Viento 4 kt del oeste
Temperatura 18°C
Humedad 73%
Presión 1012 hPa
Visibilidad 10 km o más
sin nubes por debajo de 1500 m y sin presencia de cumulonimbus.

METAR: LICC 030050Z 27004KT CAVOK 18/13 Q1012

Hora: 03:20 (01:20 UTC)

Pronóstico

El informe se hizo hace 2 horas y 20 minutos, a las 23:00 UTC
Pronóstico válido del 03 a las 00 UTC al 03 a las 24 UTC
Viento 5 kt con dirección variable
Visibilidad 10 km o más
Nubes dispersas a una altura de 3000 ft
Evolucionando progresivamente
del 03 a las 08 UTC al 03 a las 10 UTC
Viento 12 kt del este
Evolucionando progresivamente
del 03 a las 18 UTC al 03 a las 20 UTC
Viento 5 kt con dirección variable

TAF: LICC 022300Z 0300/0324 VRB05KT 9999 SCT030 BECMG 0308/0310 10012KT BECMG 0318/0320 VRB05KT

Observaciones y pronósticos meteorológicos de más de 4000 aeropuertos (mensajes METAR y TAF).

Los puntos amarillos y rojos representan las estaciones disponibles.

Ponga el ratón en el punto deseado para ver el nombre de la estación.

Haga clic para ver las observaciones y los pronósticos meteorológicos.

Para cambiar el mapa : haga clic en los botones verdes con una cruz de color negro para hacer un zoom, en el botón verde con un guión para alejar o en las flechas verdes para mapas adyacentes.


METAR-TAF: